Grande Europa — ICGE — position and weather

sailwx.info

Track history (hours):
 
Tides and Currents Weather Stations Pressure Air Temp Water Temp Dewpoint Dewpoint Depression Visibility Wind Speed Wind Dir Waves Ship Positions

Grande Europa

Last reported at 2016-Apr-30 14:32 UTC. Time now 2016-Apr-30 15:04 UTC.
Position N 44°19' E 008°30'.

Length 183 m; draft 8.5 m.

Type: Ship (hazmat cat A). MMSI: 247206000.

Date/timePositionNaut miles runAvg speedWind from/ knotsBaromVisibWave heightAir tempDewpointWater temp
2016-Apr-30 14:32N 44°19' E 008°30'0 0.0
2016-Apr-30 13:32N 44°19' E 008°30'0 0.0
2016-Apr-30 12:33N 44°19' E 008°30'0 0.2
2016-Apr-30 11:33N 44°19' E 008°30'8 7.8
2016-Apr-30 10:33N 44°11' E 008°31'3 3.4
2016-Apr-30 09:33N 44°08' E 008°30'1 1.1
2016-Apr-30 08:33N 44°08' E 008°31'1 0.8
2016-Apr-30 07:33N 44°08' E 008°32'1 1.0
2016-Apr-30 06:33N 44°09' E 008°33'1 1.3
2016-Apr-30 05:33N 44°10' E 008°35'1 1.5
2016-Apr-30 04:33N 44°11' E 008°37'4 3.6
2016-Apr-30 03:33N 44°07' E 008°39'1414.2
2016-Apr-30 02:34N 43°55' E 008°50'1616.0
2016-Apr-30 01:34N 43°42' E 009°01'1615.7
2016-Apr-30 00:34N 43°28' E 009°13'1615.6
2016-Apr-29 23:34N 43°15' E 009°24'1515.1
2016-Apr-29 22:34N 43°02' E 009°34'1515.1
2016-Apr-29 21:34N 42°48' E 009°41'1515.1
2016-Apr-29 20:34N 42°33' E 009°47'1514.7
2016-Apr-29 19:32N 42°20' E 009°56'1515.4
2016-Apr-29 18:34N 42°11' E 010°13'4715.6
2016-Apr-29 15:34N 41°49' E 011°08'4715.5
2016-Apr-29 12:31N 41°27' E 012°04'6215.3
2016-Apr-29 08:28N 40°58' E 013°17'1415.3
2016-Apr-29 07:34N 40°51' E 013°33'1615.5
2016-Apr-29 06:33N 40°40' E 013°48'1515.3
2016-Apr-29 05:32N 40°32' E 014°05'1515.0
2016-Apr-29 04:33N 40°31' E 014°24'15 0.6
2016-Apr-28 04:12N 40°36' E 014°43'5 7.2
2016-Apr-28 03:33N 40°32' E 014°43'1813.8
2016-Apr-28 02:16N 40°14' E 014°43'6515.4
2016-Apr-27 22:03N 39°14' E 015°15'815.7
2016-Apr-27 21:33N 39°06' E 015°19'1515.5
2016-Apr-27 20:33N 38°52' E 015°26'1111.3
2016-Apr-27 19:33N 38°45' E 015°38'3 3.0
2016-Apr-27 18:33N 38°44' E 015°41'1111.3
2016-Apr-27 17:33N 38°35' E 015°33'1514.9
2016-Apr-27 16:33N 38°21' E 015°41'1312.6
2016-Apr-27 15:34N 38°09' E 015°37'1414.3
2016-Apr-27 14:33N 37°55' E 015°39'1615.6
2016-Apr-27 13:33N 37°48' E 015°57'  
2016-Apr-25 07:34N 32°51' E 031°28'1514.5
2016-Apr-25 06:32N 32°45' E 031°45'1616.2
2016-Apr-25 05:32N 32°40' E 032°03'1616.1
2016-Apr-25 04:32N 32°34' E 032°21'3515.9
2016-Apr-25 02:19N 32°23' E 033°01'1515.8
2016-Apr-25 01:23N 32°18' E 033°17'1416.1
2016-Apr-25 00:31N 32°13' E 033°32'1616.3
2016-Apr-24 23:34N 32°08' E 033°50'1716.7
2016-Apr-24 22:33N 32°01' E 034°08'1717.0
2016-Apr-24 21:34N 31°54' E 034°26'12 4.0
2016-Apr-24 18:33N 31°50' E 034°39'0 0.0
2016-Apr-24 17:33N 31°50' E 034°39'0 0.0
2016-Apr-24 15:33N 31°50' E 034°39'0 0.0
2016-Apr-24 13:30N 31°50' E 034°39'0 0.0
2016-Apr-24 12:30N 31°50' E 034°39'0 0.0
2016-Apr-24 11:33N 31°50' E 034°39'0 0.0
2016-Apr-24 10:33N 31°50' E 034°39'0 0.0
2016-Apr-24 09:30N 31°50' E 034°39'0 0.0
2016-Apr-24 08:27N 31°50' E 034°39'0 0.0
2016-Apr-24 07:21N 31°50' E 034°39'0 0.0
2016-Apr-24 06:18N 31°50' E 034°39'0 0.0
2016-Apr-24 05:27N 31°50' E 034°39'0 0.0
2016-Apr-23 23:15N 31°50' E 034°39'0 0.0
2016-Apr-23 22:33N 31°50' E 034°39'0 0.0
2016-Apr-23 19:33N 31°50' E 034°39'0 0.0
2016-Apr-23 18:30N 31°50' E 034°39'0 0.0
2016-Apr-23 17:18N 31°50' E 034°39'0 0.0
2016-Apr-23 16:30N 31°50' E 034°39'0 0.0
2016-Apr-23 15:30N 31°50' E 034°39'0 0.0
2016-Apr-23 14:33N 31°50' E 034°39'3 3.2
2016-Apr-23 13:33N 31°52' E 034°36'1 1.4
2016-Apr-23 12:33N 31°51' E 034°35'0 0.0
2016-Apr-23 11:30N 31°51' E 034°35'0 0.0
2016-Apr-23 10:33N 31°51' E 034°35'0 0.0
2016-Apr-23 09:33N 31°51' E 034°35'0 0.1
2016-Apr-23 08:27N 31°51' E 034°35'2 2.6
2016-Apr-23 07:33N 31°52' E 034°32'9 8.8
2016-Apr-23 06:34N 31°55' E 034°23'1716.6
2016-Apr-23 05:34N 32°02' E 034°05'1615.8
2016-Apr-23 04:34N 32°11' E 033°50'1716.8
2016-Apr-23 03:34N 32°27' E 033°45'1616.1
2016-Apr-23 02:34N 32°43' E 033°40'1615.9
2016-Apr-23 01:34N 32°58' E 033°35'1716.6
2016-Apr-23 00:34N 33°14' E 033°29'1716.9
2016-Apr-22 23:34N 33°31' E 033°25'1717.0
2016-Apr-22 22:33N 33°48' E 033°21'1717.1
2016-Apr-22 21:34N 34°04' E 033°16'1717.1
2016-Apr-22 20:34N 34°20' E 033°10'1717.0
2016-Apr-22 19:33N 34°37' E 033°04'3 3.2
2016-Apr-22 18:30N 34°39' E 033°01'0 0.0
2016-Apr-22 17:22N 34°39' E 033°01'0 0.0
2016-Apr-22 16:27N 34°39' E 033°01'0 0.0
2016-Apr-22 15:30N 34°39' E 033°01'0 0.0
2016-Apr-22 14:33N 34°39' E 033°01'2 1.8
2016-Apr-22 13:33N 34°39' E 033°03'1514.8
2016-Apr-22 12:33N 34°25' E 032°57'2318.8
2016-Apr-22 11:19N 34°07' E 032°39'1518.6
2016-Apr-22 10:31N 33°55' E 032°28'4418.4
2016-Apr-22 08:07N 33°22' E 031°53'7119.0
2016-Apr-22 04:23N 32°30' E 030°56'1618.7
2016-Apr-22 03:31N 32°17' E 030°43'1818.4
2016-Apr-22 02:33N 32°04' E 030°30'2218.6
2016-Apr-22 01:22N 31°48' E 030°12'1518.5
2016-Apr-22 00:32N 31°35' E 030°01'56 2.3
2016-Apr-21 00:33N 32°18' E 029°18'1616.4
2016-Apr-20 23:33N 32°33' E 029°10'13716.8
2016-Apr-20 15:25N 34°38' E 028°04'  
Track history (hours):
 
Tides and Currents Weather Stations Pressure Air Temp Water Temp Dewpoint Dewpoint Depression Visibility Wind Speed Wind Dir Waves Ship Positions

Grande Europa

Last reported at 2016-Apr-30 14:32 UTC. Time now 2016-Apr-30 15:04 UTC.
Position N 44°19' E 008°30'.

Length 183 m; draft 8.5 m.

Type: Ship (hazmat cat A). MMSI: 247206000.

Date/timePositionNaut miles runAvg speedWind from/ knotsBaromVisibWave heightAir tempDewpointWater temp
2016-Apr-30 14:32N 44°19' E 008°30'0 0.0
2016-Apr-30 13:32N 44°19' E 008°30'0 0.0
2016-Apr-30 12:33N 44°19' E 008°30'0 0.2
2016-Apr-30 11:33N 44°19' E 008°30'8 7.8
2016-Apr-30 10:33N 44°11' E 008°31'3 3.4
2016-Apr-30 09:33N 44°08' E 008°30'1 1.1
2016-Apr-30 08:33N 44°08' E 008°31'1 0.8
2016-Apr-30 07:33N 44°08' E 008°32'1 1.0
2016-Apr-30 06:33N 44°09' E 008°33'1 1.3
2016-Apr-30 05:33N 44°10' E 008°35'1 1.5
2016-Apr-30 04:33N 44°11' E 008°37'4 3.6
2016-Apr-30 03:33N 44°07' E 008°39'1414.2
2016-Apr-30 02:34N 43°55' E 008°50'1616.0
2016-Apr-30 01:34N 43°42' E 009°01'1615.7
2016-Apr-30 00:34N 43°28' E 009°13'1615.6
2016-Apr-29 23:34N 43°15' E 009°24'1515.1
2016-Apr-29 22:34N 43°02' E 009°34'1515.1
2016-Apr-29 21:34N 42°48' E 009°41'1515.1
2016-Apr-29 20:34N 42°33' E 009°47'1514.7
2016-Apr-29 19:32N 42°20' E 009°56'1515.4
2016-Apr-29 18:34N 42°11' E 010°13'4715.6
2016-Apr-29 15:34N 41°49' E 011°08'4715.5
2016-Apr-29 12:31N 41°27' E 012°04'6215.3
2016-Apr-29 08:28N 40°58' E 013°17'1415.3
2016-Apr-29 07:34N 40°51' E 013°33'1615.5
2016-Apr-29 06:33N 40°40' E 013°48'1515.3
2016-Apr-29 05:32N 40°32' E 014°05'1515.0
2016-Apr-29 04:33N 40°31' E 014°24'15 0.6
2016-Apr-28 04:12N 40°36' E 014°43'5 7.2
2016-Apr-28 03:33N 40°32' E 014°43'1813.8
2016-Apr-28 02:16N 40°14' E 014°43'6515.4
2016-Apr-27 22:03N 39°14' E 015°15'815.7
2016-Apr-27 21:33N 39°06' E 015°19'1515.5
2016-Apr-27 20:33N 38°52' E 015°26'1111.3
2016-Apr-27 19:33N 38°45' E 015°38'3 3.0
2016-Apr-27 18:33N 38°44' E 015°41'1111.3
2016-Apr-27 17:33N 38°35' E 015°33'1514.9
2016-Apr-27 16:33N 38°21' E 015°41'1312.6
2016-Apr-27 15:34N 38°09' E 015°37'1414.3
2016-Apr-27 14:33N 37°55' E 015°39'1615.6
2016-Apr-27 13:33N 37°48' E 015°57'  
2016-Apr-25 07:34N 32°51' E 031°28'1514.5
2016-Apr-25 06:32N 32°45' E 031°45'1616.2
2016-Apr-25 05:32N 32°40' E 032°03'1616.1
2016-Apr-25 04:32N 32°34' E 032°21'3515.9
2016-Apr-25 02:19N 32°23' E 033°01'1515.8
2016-Apr-25 01:23N 32°18' E 033°17'1416.1
2016-Apr-25 00:31N 32°13' E 033°32'1616.3
2016-Apr-24 23:34N 32°08' E 033°50'1716.7
2016-Apr-24 22:33N 32°01' E 034°08'1717.0
2016-Apr-24 21:34N 31°54' E 034°26'12 4.0
2016-Apr-24 18:33N 31°50' E 034°39'0 0.0
2016-Apr-24 17:33N 31°50' E 034°39'0 0.0
2016-Apr-24 15:33N 31°50' E 034°39'0 0.0
2016-Apr-24 13:30N 31°50' E 034°39'0 0.0
2016-Apr-24 12:30N 31°50' E 034°39'0 0.0
2016-Apr-24 11:33N 31°50' E 034°39'0 0.0
2016-Apr-24 10:33N 31°50' E 034°39'0 0.0
2016-Apr-24 09:30N 31°50' E 034°39'0 0.0
2016-Apr-24 08:27N 31°50' E 034°39'0 0.0
2016-Apr-24 07:21N 31°50' E 034°39'0 0.0
2016-Apr-24 06:18N 31°50' E 034°39'0 0.0
2016-Apr-24 05:27N 31°50' E 034°39'0 0.0
2016-Apr-23 23:15N 31°50' E 034°39'0 0.0
2016-Apr-23 22:33N 31°50' E 034°39'0 0.0
2016-Apr-23 19:33N 31°50' E 034°39'0 0.0
2016-Apr-23 18:30N 31°50' E 034°39'0 0.0
2016-Apr-23 17:18N 31°50' E 034°39'0 0.0
2016-Apr-23 16:30N 31°50' E 034°39'0 0.0
2016-Apr-23 15:30N 31°50' E 034°39'0 0.0
2016-Apr-23 14:33N 31°50' E 034°39'3 3.2
2016-Apr-23 13:33N 31°52' E 034°36'1 1.4
2016-Apr-23 12:33N 31°51' E 034°35'0 0.0
2016-Apr-23 11:30N 31°51' E 034°35'0 0.0
2016-Apr-23 10:33N 31°51' E 034°35'0 0.0
2016-Apr-23 09:33N 31°51' E 034°35'0 0.1
2016-Apr-23 08:27N 31°51' E 034°35'2 2.6
2016-Apr-23 07:33N 31°52' E 034°32'9 8.8
2016-Apr-23 06:34N 31°55' E 034°23'1716.6
2016-Apr-23 05:34N 32°02' E 034°05'1615.8
2016-Apr-23 04:34N 32°11' E 033°50'1716.8
2016-Apr-23 03:34N 32°27' E 033°45'1616.1
2016-Apr-23 02:34N 32°43' E 033°40'1615.9
2016-Apr-23 01:34N 32°58' E 033°35'1716.6
2016-Apr-23 00:34N 33°14' E 033°29'1716.9
2016-Apr-22 23:34N 33°31' E 033°25'1717.0
2016-Apr-22 22:33N 33°48' E 033°21'1717.1
2016-Apr-22 21:34N 34°04' E 033°16'1717.1
2016-Apr-22 20:34N 34°20' E 033°10'1717.0
2016-Apr-22 19:33N 34°37' E 033°04'3 3.2
2016-Apr-22 18:30N 34°39' E 033°01'0 0.0
2016-Apr-22 17:22N 34°39' E 033°01'0 0.0
2016-Apr-22 16:27N 34°39' E 033°01'0 0.0
2016-Apr-22 15:30N 34°39' E 033°01'0 0.0
2016-Apr-22 14:33N 34°39' E 033°01'2 1.8
2016-Apr-22 13:33N 34°39' E 033°03'1514.8
2016-Apr-22 12:33N 34°25' E 032°57'2318.8
2016-Apr-22 11:19N 34°07' E 032°39'1518.6
2016-Apr-22 10:31N 33°55' E 032°28'4418.4
2016-Apr-22 08:07N 33°22' E 031°53'7119.0
2016-Apr-22 04:23N 32°30' E 030°56'1618.7
2016-Apr-22 03:31N 32°17' E 030°43'1818.4
2016-Apr-22 02:33N 32°04' E 030°30'2218.6
2016-Apr-22 01:22N 31°48' E 030°12'1518.5
2016-Apr-22 00:32N 31°35' E 030°01'56 2.3
2016-Apr-21 00:33N 32°18' E 029°18'1616.4
2016-Apr-20 23:33N 32°33' E 029°10'13716.8
2016-Apr-20 15:25N 34°38' E 028°04'  

Dump ship's entire track history